Time;durP1;ratioP1;P1;durP2;ratioP2;P2;SDS_P1;SDS_P2;PMS_P1;PMS_P2;Temp;Humidity;BMP_temperature;BMP_pressure;BME280_temperature;BME280_humidity;BME280_pressure;Samples;Min_cycle;Max_cycle;Signal;HPM_P1;HPM_P2
2021/03/22 00:00:33;;;;;;;0.40;0.38;;;22.30;24.90;;;;;;5046309;28;20132;-62
2021/03/22 00:03:00;;;;;;;0.60;0.60;;;22.30;24.90;;;;;;5044979;28;20045;-63
2021/03/22 00:05:27;;;;;;;0.60;0.60;;;22.30;24.90;;;;;;5045858;28;20044;-63
2021/03/22 00:07:55;;;;;;;0.52;0.52;;;22.30;24.90;;;;;;5045722;28;20049;-64
2021/03/22 00:10:24;;;;;;;0.52;0.52;;;22.30;24.90;;;;;;5028410;28;20049;-63
2021/03/22 00:12:52;;;;;;;0.68;0.50;;;22.30;24.90;;;;;;5045748;28;20069;-63
2021/03/22 00:15:31;;;;;;;0.70;0.60;;;22.30;24.90;;;;;;5046048;28;20460;-62
2021/03/22 00:17:59;;;;;;;0.70;0.70;;;22.30;24.90;;;;;;5045767;28;20198;-62
2021/03/22 00:20:27;;;;;;;0.50;0.50;;;22.30;24.90;;;;;;5045610;28;20044;-62
2021/03/22 00:22:53;;;;;;;0.40;0.40;;;22.30;24.90;;;;;;5045796;28;20124;-63
2021/03/22 00:25:21;;;;;;;0.73;0.73;;;22.30;24.90;;;;;;5045780;28;20049;-63
2021/03/22 00:27:48;;;;;;;0.47;0.47;;;22.30;25.00;;;;;;5045148;28;20418;-63
2021/03/22 00:30:24;;;;;;;0.40;0.40;;;22.30;25.00;;;;;;5045836;28;20497;-63
2021/03/22 00:32:51;;;;;;;0.40;0.40;;;22.30;25.00;;;;;;5044924;28;20059;-63
2021/03/22 00:35:19;;;;;;;0.52;0.52;;;22.30;25.00;;;;;;5045071;28;20494;-62
2021/03/22 00:37:46;;;;;;;0.50;0.50;;;22.30;25.00;;;;;;5044193;28;20131;-62
2021/03/22 00:40:13;;;;;;;0.60;0.60;;;22.30;25.00;;;;;;5026854;28;20206;-62
2021/03/22 00:42:41;;;;;;;0.55;0.55;;;22.30;25.00;;;;;;5045073;28;20041;-63
2021/03/22 00:45:10;;;;;;;0.70;0.60;;;22.20;25.00;;;;;;5027696;28;20053;-63
2021/03/22 00:47:36;;;;;;;0.50;0.45;;;22.20;25.00;;;;;;5044977;28;20497;-62
2021/03/22 00:50:06;;;;;;;0.25;0.22;;;22.20;25.10;;;;;;5045190;28;20375;-63
2021/03/22 00:52:32;;;;;;;1.00;0.73;;;22.20;25.00;;;;;;5044790;28;20133;-63
2021/03/22 00:54:59;;;;;;;0.82;0.50;;;22.20;25.10;;;;;;5045560;28;20428;-64
2021/03/22 00:57:26;;;;;;;0.57;0.57;;;22.20;25.10;;;;;;5043648;28;20053;-64
2021/03/22 00:59:52;;;;;;;0.52;0.50;;;22.20;25.10;;;;;;5044986;28;20069;-63
2021/03/22 01:02:19;;;;;;;0.43;0.43;;;22.20;25.10;;;;;;5044571;28;20595;-63
2021/03/22 01:04:46;;;;;;;0.55;0.55;;;22.30;25.10;;;;;;5044740;28;20056;-63
2021/03/22 01:07:12;;;;;;;0.60;0.57;;;22.30;25.10;;;;;;5044994;28;20080;-63
2021/03/22 01:09:39;;;;;;;0.70;0.70;;;22.20;25.10;;;;;;5044439;28;20163;-63
2021/03/22 01:12:06;;;;;;;0.50;0.50;;;22.20;25.10;;;;;;5045230;28;20091;-63
2021/03/22 01:14:33;;;;;;;0.80;0.80;;;22.20;25.10;;;;;;5027776;28;20149;-62
2021/03/22 01:16:59;;;;;;;0.43;0.43;;;22.20;25.10;;;;;;5044572;28;20048;-62
2021/03/22 01:19:28;;;;;;;0.75;0.65;;;22.20;25.20;;;;;;5045120;28;20130;-63
2021/03/22 01:22:00;;;;;;;0.50;0.50;;;22.20;25.20;;;;;;5044361;28;20128;-64
2021/03/22 01:24:34;;;;;;;0.47;0.47;;;22.20;25.20;;;;;;5045249;28;20136;-63
2021/03/22 01:27:06;;;;;;;0.65;0.63;;;22.20;25.20;;;;;;5043626;28;20135;-63
2021/03/22 01:29:37;;;;;;;0.50;0.50;;;22.20;25.20;;;;;;5043701;28;20041;-63
2021/03/22 01:32:10;;;;;;;0.70;0.70;;;22.20;25.20;;;;;;5043787;28;20060;-62
2021/03/22 01:34:38;;;;;;;0.63;0.60;;;22.10;25.20;;;;;;5043892;28;20045;-62
2021/03/22 01:37:06;;;;;;;0.45;0.45;;;22.10;25.20;;;;;;5044384;28;20122;-62
2021/03/22 01:39:35;;;;;;;0.47;0.47;;;22.10;25.20;;;;;;5044823;28;20256;-63
2021/03/22 01:42:40;;;;;;;0.60;0.60;;;22.10;25.20;;;;;;5043844;28;20174;-63
2021/03/22 01:45:09;;;;;;;0.63;0.63;;;22.10;25.30;;;;;;5044658;28;20437;-63
2021/03/22 01:47:36;;;;;;;0.45;0.45;;;22.10;25.70;;;;;;5044390;28;20115;-63
2021/03/22 01:50:22;;;;;;;0.40;0.40;;;22.10;25.20;;;;;;5044478;28;20099;-63
2021/03/22 01:52:49;;;;;;;0.40;0.40;;;22.10;25.20;;;;;;5044010;28;20056;-62
2021/03/22 01:55:20;;;;;;;1.08;0.70;;;22.10;25.30;;;;;;5044588;28;20053;-62
2021/03/22 01:57:47;;;;;;;0.32;0.32;;;22.10;25.30;;;;;;5044054;28;20120;-63
2021/03/22 02:00:34;;;;;;;0.70;0.70;;;22.10;25.30;;;;;;5044108;28;20072;-64
2021/03/22 02:03:12;;;;;;;0.60;0.60;;;22.10;25.30;;;;;;5043485;28;20132;-64
2021/03/22 02:05:46;;;;;;;0.40;0.40;;;22.10;25.30;;;;;;5044363;28;20055;-63
2021/03/22 02:08:25;;;;;;;0.60;0.60;;;22.10;25.30;;;;;;5044676;28;20103;-63
2021/03/22 02:10:52;;;;;;;0.50;0.50;;;22.10;25.30;;;;;;5047963;28;20131;-62
2021/03/22 02:13:23;;;;;;;0.60;0.60;;;22.10;25.30;;;;;;5048131;28;20489;-62
2021/03/22 02:16:06;;;;;;;0.40;0.40;;;22.10;25.30;;;;;;5047961;28;20098;-64
2021/03/22 02:18:53;;;;;;;0.50;0.50;;;22.10;25.30;;;;;;5047872;28;20079;-63
2021/03/22 02:21:54;;;;;;;0.63;0.63;;;22.10;25.30;;;;;;5048150;28;20126;-63
2021/03/22 02:24:39;;;;;;;0.65;0.60;;;22.10;25.40;;;;;;5033050;28;20132;-63
2021/03/22 02:27:45;;;;;;;1.25;0.70;;;22.10;25.40;;;;;;5047960;28;20419;-63
2021/03/22 02:30:42;;;;;;;0.40;0.40;;;22.10;25.40;;;;;;5036208;28;20088;-64
2021/03/22 02:33:49;;;;;;;0.60;0.60;;;22.00;25.40;;;;;;5046442;28;20463;-64
2021/03/22 02:36:45;;;;;;;0.82;0.50;;;22.00;25.40;;;;;;5033253;28;20041;-63
2021/03/22 02:39:12;;;;;;;0.70;0.60;;;22.00;25.40;;;;;;5047463;28;20497;-63
2021/03/22 02:41:47;;;;;;;0.45;0.45;;;22.00;25.40;;;;;;5047825;28;20404;-62
2021/03/22 02:44:24;;;;;;;0.50;0.50;;;22.00;25.40;;;;;;5048181;28;20120;-63
2021/03/22 02:47:06;;;;;;;0.57;0.57;;;22.00;25.50;;;;;;5029947;28;20045;-63
2021/03/22 02:49:37;;;;;;;0.70;0.60;;;22.00;25.50;;;;;;5047446;28;20139;-62
2021/03/22 02:52:29;;;;;;;0.40;0.40;;;22.00;25.50;;;;;;5047264;28;20511;-62
2021/03/22 02:55:09;;;;;;;0.57;0.57;;;22.00;25.50;;;;;;5047540;28;20088;-63
2021/03/22 02:57:53;;;;;;;0.73;0.73;;;22.00;25.50;;;;;;5046982;28;20091;-64
2021/03/22 03:00:27;;;;;;;0.95;0.60;;;22.00;25.50;;;;;;5047876;28;20462;-64
2021/03/22 03:02:58;;;;;;;0.68;0.68;;;22.00;25.50;;;;;;5046998;28;20052;-63
2021/03/22 03:05:28;;;;;;;0.80;0.80;;;22.00;25.50;;;;;;5047163;28;20056;-63
2021/03/22 03:07:56;;;;;;;0.60;0.60;;;22.00;25.50;;;;;;5046835;28;20053;-62
2021/03/22 03:10:23;;;;;;;0.30;0.30;;;22.00;25.50;;;;;;5046260;28;20047;-62
2021/03/22 03:12:50;;;;;;;0.50;0.50;;;22.00;25.50;;;;;;5046331;28;20088;-62
2021/03/22 03:15:18;;;;;;;0.43;0.43;;;22.00;25.60;;;;;;5047463;28;20079;-64
2021/03/22 03:17:48;;;;;;;0.65;0.40;;;22.00;25.60;;;;;;5046399;28;20452;-63
2021/03/22 03:20:18;;;;;;;0.47;0.47;;;22.00;25.60;;;;;;5046534;28;20045;-63
2021/03/22 03:22:45;;;;;;;0.38;0.38;;;21.90;25.50;;;;;;5046080;28;20470;-63
2021/03/22 03:25:13;;;;;;;0.57;0.57;;;21.90;25.50;;;;;;5047036;28;20045;-63
2021/03/22 03:27:40;;;;;;;0.43;0.43;;;21.90;25.60;;;;;;5046377;28;20049;-62
2021/03/22 03:30:09;;;;;;;0.57;0.57;;;21.90;25.60;;;;;;5028113;28;20041;-62
2021/03/22 03:32:36;;;;;;;0.50;0.47;;;21.90;25.60;;;;;;5045708;28;20309;-63
2021/03/22 03:35:06;;;;;;;0.55;0.55;;;21.90;25.60;;;;;;5046431;28;20041;-63
2021/03/22 03:37:32;;;;;;;0.75;0.60;;;21.90;25.60;;;;;;5046587;28;20053;-63
2021/03/22 03:39:59;;;;;;;0.57;0.57;;;21.90;25.60;;;;;;5028676;28;20049;-63
2021/03/22 03:42:26;;;;;;;0.50;0.50;;;21.90;25.60;;;;;;5046711;28;20286;-63
2021/03/22 03:44:52;;;;;;;0.57;0.57;;;21.90;25.60;;;;;;5045643;28;20099;-63
2021/03/22 03:47:19;;;;;;;0.60;0.60;;;21.90;25.70;;;;;;5046205;28;20103;-62
2021/03/22 03:49:45;;;;;;;0.40;0.40;;;21.90;25.60;;;;;;5045921;28;20102;-62
2021/03/22 03:52:12;;;;;;;0.50;0.45;;;21.90;25.70;;;;;;5028587;28;20150;-61
2021/03/22 03:54:39;;;;;;;0.80;0.60;;;21.90;25.60;;;;;;5045786;28;20064;-61
2021/03/22 03:57:06;;;;;;;0.60;0.60;;;21.90;25.70;;;;;;5046166;28;21928;-62
2021/03/22 03:59:33;;;;;;;0.40;0.40;;;21.90;25.70;;;;;;5045705;28;20048;-63
2021/03/22 04:01:59;;;;;;;0.85;0.85;;;21.90;25.70;;;;;;5046160;28;20323;-63
2021/03/22 04:04:26;;;;;;;0.55;0.52;;;21.90;25.70;;;;;;5028477;28;20505;-62
2021/03/22 04:06:53;;;;;;;0.80;0.77;;;21.90;25.70;;;;;;5045922;28;20103;-62
2021/03/22 04:09:21;;;;;;;0.40;0.40;;;21.90;25.70;;;;;;5045763;28;20483;-62
2021/03/22 04:11:49;;;;;;;0.93;0.60;;;21.90;25.70;;;;;;5046087;28;20124;-62
2021/03/22 04:14:23;;;;;;;0.70;0.70;;;21.90;25.70;;;;;;5045936;28;20575;-61
2021/03/22 04:16:50;;;;;;;0.50;0.50;;;21.90;25.70;;;;;;5045406;28;20140;-63
2021/03/22 04:19:19;;;;;;;0.50;0.50;;;21.80;25.70;;;;;;5045733;28;20135;-65
2021/03/22 04:21:46;;;;;;;0.60;0.60;;;21.80;25.70;;;;;;5045183;28;20076;-63
2021/03/22 04:24:14;;;;;;;0.70;0.55;;;21.80;25.70;;;;;;5045874;28;20080;-62
2021/03/22 04:26:41;;;;;;;0.82;0.60;;;21.80;25.80;;;;;;5027357;28;20045;-62
2021/03/22 04:29:08;;;;;;;0.70;0.60;;;21.80;25.80;;;;;;5044968;28;20041;-62
2021/03/22 04:31:35;;;;;;;0.70;0.68;;;21.80;25.80;;;;;;5045098;28;20049;-63
2021/03/22 04:34:02;;;;;;;0.77;0.52;;;21.80;25.80;;;;;;5045482;28;20060;-63
2021/03/22 04:36:33;;;;;;;0.50;0.50;;;21.80;25.80;;;;;;5045496;28;20410;-63
2021/03/22 04:39:00;;;;;;;0.63;0.43;;;21.80;25.80;;;;;;5044812;28;20505;-63
2021/03/22 04:41:27;;;;;;;1.35;0.75;;;21.80;25.80;;;;;;5045445;28;20504;-63
2021/03/22 04:43:54;;;;;;;0.40;0.40;;;21.80;25.90;;;;;;5026911;28;20577;-62
2021/03/22 04:46:21;;;;;;;0.52;0.52;;;21.80;25.80;;;;;;5044689;28;20079;-62
2021/03/22 04:48:59;;;;;;;0.93;0.52;;;21.80;25.80;;;;;;5045047;28;20486;-64
2021/03/22 04:51:27;;;;;;;0.88;0.88;;;21.80;25.80;;;;;;5043859;28;20442;-64
2021/03/22 04:53:55;;;;;;;0.93;0.93;;;21.80;25.80;;;;;;5044907;28;20052;-63
2021/03/22 04:56:22;;;;;;;0.70;0.70;;;21.80;25.90;;;;;;5043685;28;20049;-63
2021/03/22 04:58:49;;;;;;;0.60;0.60;;;21.80;25.90;;;;;;5044625;28;20160;-62
2021/03/22 05:01:16;;;;;;;0.60;0.60;;;21.80;25.90;;;;;;5044986;28;20103;-63
2021/03/22 05:03:43;;;;;;;0.50;0.50;;;21.80;25.90;;;;;;5044909;28;20040;-62
2021/03/22 05:06:11;;;;;;;0.70;0.65;;;21.80;25.90;;;;;;5044964;28;20048;-62
2021/03/22 05:08:37;;;;;;;0.65;0.65;;;21.80;25.90;;;;;;5044584;28;20067;-63
2021/03/22 05:11:06;;;;;;;0.60;0.60;;;21.70;25.90;;;;;;5044251;28;20591;-63
2021/03/22 05:13:33;;;;;;;0.40;0.40;;;21.70;25.90;;;;;;5042821;28;20161;-63
2021/03/22 05:16:00;;;;;;;0.65;0.65;;;21.70;25.90;;;;;;5041203;28;20073;-63
2021/03/22 05:18:31;;;;;;;0.93;0.80;;;21.70;25.90;;;;;;5041009;28;20076;-63
2021/03/22 05:21:03;;;;;;;0.82;0.82;;;21.80;26.00;;;;;;5035427;28;20106;-62
2021/03/22 05:23:31;;;;;;;0.55;0.50;;;21.70;25.90;;;;;;5034466;28;20057;-63
2021/03/22 05:25:59;;;;;;;0.63;0.63;;;21.70;25.90;;;;;;5032671;28;20125;-62
2021/03/22 05:28:29;;;;;;;0.50;0.50;;;21.70;26.00;;;;;;5045014;28;20087;-63
2021/03/22 05:30:56;;;;;;;0.52;0.52;;;21.70;25.90;;;;;;5036556;28;20510;-63
2021/03/22 05:33:24;;;;;;;0.60;0.60;;;21.70;25.90;;;;;;5027351;28;20497;-62
2021/03/22 05:35:57;;;;;;;0.40;0.40;;;21.80;26.00;;;;;;5037663;28;20456;-63
2021/03/22 05:38:24;;;;;;;1.17;0.60;;;21.80;26.00;;;;;;5037372;28;20446;-62
2021/03/22 05:41:01;;;;;;;1.23;0.70;;;21.80;25.90;;;;;;5035650;28;20077;-64
2021/03/22 05:43:49;;;;;;;1.13;0.70;;;21.80;25.90;;;;;;5029339;28;20084;-64
2021/03/22 05:46:38;;;;;;;0.70;0.70;;;21.80;26.40;;;;;;5047680;28;20451;-63
2021/03/22 05:49:42;;;;;;;0.73;0.73;;;21.80;25.90;;;;;;5046807;28;20571;-63
2021/03/22 05:52:22;;;;;;;0.73;0.73;;;21.80;26.40;;;;;;5040335;28;20412;-63
2021/03/22 05:55:10;;;;;;;1.30;0.90;;;21.80;25.90;;;;;;5036779;28;20136;-63
2021/03/22 05:58:04;;;;;;;0.68;0.68;;;21.80;25.90;;;;;;5037876;28;20494;-64
2021/03/22 06:00:58;;;;;;;0.60;0.60;;;21.80;25.90;;;;;;5039571;28;20076;-62
2021/03/22 06:03:38;;;;;;;1.08;1.05;;;21.90;25.90;;;;;;5043343;28;20056;-62
2021/03/22 06:06:29;;;;;;;1.90;1.00;;;21.90;25.90;;;;;;5038506;28;20050;-63
2021/03/22 06:09:29;;;;;;;1.10;1.10;;;21.90;25.90;;;;;;5042826;28;20084;-64
2021/03/22 06:12:08;;;;;;;1.95;1.00;;;21.80;26.00;;;;;;5030077;28;20076;-63
2021/03/22 06:14:54;;;;;;;1.30;1.20;;;21.80;26.00;;;;;;5023207;28;20076;-63
2021/03/22 06:17:43;;;;;;;1.92;1.23;;;21.80;26.10;;;;;;5039293;28;22403;-63
2021/03/22 06:20:26;;;;;;;1.35;1.15;;;21.80;26.10;;;;;;5040193;28;20107;-66
2021/03/22 06:23:02;;;;;;;1.38;1.27;;;21.80;26.10;;;;;;5042049;28;20132;-64
2021/03/22 06:25:31;;;;;;;1.83;1.58;;;21.80;26.30;;;;;;5042576;28;20123;-64
2021/03/22 06:28:22;;;;;;;2.20;1.88;;;21.90;26.40;;;;;;5037453;28;20551;-64
2021/03/22 06:31:07;;;;;;;2.30;1.30;;;22.00;26.50;;;;;;5043320;28;20501;-66
2021/03/22 06:33:45;;;;;;;1.70;1.10;;;22.00;26.40;;;;;;5039355;28;20106;-66
2021/03/22 06:36:15;;;;;;;1.25;1.02;;;22.20;26.40;;;;;;5023358;28;20063;-66
2021/03/22 06:38:50;;;;;;;1.40;1.30;;;22.20;26.30;;;;;;5037463;28;21513;-63
2021/03/22 06:41:48;;;;;;;1.45;1.17;;;22.40;26.80;;;;;;5035568;28;20040;-63
2021/03/22 06:44:39;;;;;;;1.10;1.00;;;22.50;26.30;;;;;;5034346;28;20151;-64
2021/03/22 06:47:31;;;;;;;1.35;1.10;;;22.60;26.20;;;;;;5033053;28;20508;-66
2021/03/22 06:50:25;;;;;;;2.38;1.40;;;22.70;26.20;;;;;;5032592;28;20049;-65
2021/03/22 06:52:53;;;;;;;1.50;1.30;;;22.80;26.10;;;;;;5029381;28;20125;-66
2021/03/22 06:55:32;;;;;;;1.40;1.30;;;22.90;26.10;;;;;;5031086;28;20134;-65
2021/03/22 06:57:58;;;;;;;1.75;1.40;;;22.90;26.00;;;;;;5031121;28;20084;-62
2021/03/22 07:00:28;;;;;;;1.70;1.38;;;23.00;26.00;;;;;;5038602;28;20127;-63
2021/03/22 07:03:16;;;;;;;1.47;1.27;;;23.10;26.00;;;;;;5038219;28;20099;-66
2021/03/22 07:05:43;;;;;;;3.40;1.27;;;23.20;26.00;;;;;;5038709;28;20400;-67
2021/03/22 07:08:18;;;;;;;1.48;1.38;;;23.20;25.90;;;;;;5037458;28;20132;-66
2021/03/22 07:11:07;;;;;;;1.08;1.08;;;23.30;25.90;;;;;;5040085;28;20089;-65
2021/03/22 07:13:35;;;;;;;2.03;1.10;;;23.30;25.90;;;;;;5043272;28;20128;-65
2021/03/22 07:16:17;;;;;;;2.13;1.30;;;23.40;25.90;;;;;;5037271;28;20040;-63
2021/03/22 07:19:17;;;;;;;0.95;0.95;;;23.50;26.00;;;;;;5041311;28;20076;-64
2021/03/22 07:22:03;;;;;;;1.23;1.15;;;23.60;26.00;;;;;;5042094;28;20126;-63
2021/03/22 07:24:57;;;;;;;2.20;1.17;;;23.60;26.40;;;;;;5042693;28;20059;-62
2021/03/22 07:27:44;;;;;;;1.42;1.10;;;23.80;26.00;;;;;;5038075;28;20501;-63
2021/03/22 07:30:25;;;;;;;2.03;1.20;;;23.90;26.00;;;;;;5018301;28;20045;-64
2021/03/22 07:33:32;;;;;;;1.15;1.15;;;24.00;25.90;;;;;;5031528;28;20080;-66
2021/03/22 07:36:32;;;;;;;1.20;1.00;;;24.10;25.80;;;;;;5022256;28;20060;-63
2021/03/22 07:39:24;;;;;;;1.67;1.13;;;24.10;25.80;;;;;;5039063;28;20497;-62
2021/03/22 07:42:25;;;;;;;1.45;1.35;;;24.30;25.70;;;;;;5036705;28;20118;-66
2021/03/22 07:45:25;;;;;;;1.42;1.17;;;24.40;25.60;;;;;;5034489;28;20160;-66
2021/03/22 07:48:20;;;;;;;1.45;1.10;;;24.50;25.50;;;;;;5033511;28;20124;-65
2021/03/22 07:51:34;;;;;;;1.20;1.02;;;24.60;25.30;;;;;;5041177;28;20432;-64
2021/03/22 07:54:20;;;;;;;1.75;1.55;;;24.70;25.20;;;;;;5035635;28;20045;-64
2021/03/22 07:56:59;;;;;;;1.65;1.55;;;24.70;25.00;;;;;;5039649;28;20103;-65
2021/03/22 07:59:55;;;;;;;2.05;1.73;;;24.80;24.90;;;;;;5041665;28;20118;-67
2021/03/22 08:02:44;;;;;;;2.83;1.88;;;24.80;24.80;;;;;;5032717;28;20075;-66
2021/03/22 08:05:43;;;;;;;1.50;1.40;;;24.90;24.80;;;;;;5037225;28;20049;-66
2021/03/22 08:08:38;;;;;;;1.60;1.27;;;24.90;24.70;;;;;;5033376;28;20068;-66
2021/03/22 08:11:31;;;;;;;2.45;1.30;;;25.00;24.60;;;;;;5037193;28;20474;-66
2021/03/22 08:14:15;;;;;;;4.55;1.40;;;25.10;24.50;;;;;;5037781;28;20051;-65
2021/03/22 08:17:01;;;;;;;1.95;1.20;;;25.10;24.40;;;;;;5017688;28;20041;-66
2021/03/22 08:19:43;;;;;;;1.63;1.30;;;25.10;24.40;;;;;;5026465;28;20048;-67
2021/03/22 08:22:38;;;;;;;1.83;1.67;;;25.10;24.20;;;;;;5032961;28;20408;-64
2021/03/22 08:25:32;;;;;;;1.83;1.70;;;25.10;23.90;;;;;;5033405;28;20091;-63
2021/03/22 08:28:19;;;;;;;2.85;1.60;;;25.10;23.90;;;;;;5037518;28;20049;-65
2021/03/22 08:31:11;;;;;;;1.40;1.30;;;25.00;23.90;;;;;;5034512;28;20072;-63
2021/03/22 08:33:45;;;;;;;1.85;1.40;;;25.00;23.90;;;;;;5019582;28;20054;-62
2021/03/22 08:36:36;;;;;;;1.63;1.52;;;25.00;24.00;;;;;;5033822;28;20107;-63
2021/03/22 08:39:25;;;;;;;5.70;1.75;;;24.90;24.00;;;;;;5030620;28;20057;-65
2021/03/22 08:42:16;;;;;;;2.20;1.60;;;24.90;24.00;;;;;;5031328;28;20144;-65
2021/03/22 08:44:55;;;;;;;1.63;1.52;;;25.00;24.10;;;;;;5037972;28;20448;-66
2021/03/22 08:47:45;;;;;;;1.55;1.45;;;25.00;24.10;;;;;;5031822;28;20488;-65
2021/03/22 08:50:17;;;;;;;;;;;25.00;24.10;;;;;;5036527;28;20506;-66
2021/03/22 08:52:56;;;;;;;3.50;1.40;;;25.10;24.30;;;;;;5035301;28;19974;-63
2021/03/22 08:55:40;;;;;;;3.28;2.00;;;25.10;24.10;;;;;;5036127;28;20051;-64
2021/03/22 08:58:18;;;;;;;1.58;1.30;;;25.00;24.00;;;;;;5034254;28;20072;-67
2021/03/22 09:00:47;;;;;;;1.98;1.50;;;25.10;24.00;;;;;;5035259;28;20441;-66
2021/03/22 09:03:39;;;;;;;1.60;1.45;;;25.00;23.90;;;;;;5036123;28;20053;-68
2021/03/22 09:06:17;;;;;;;2.15;1.70;;;25.00;23.90;;;;;;5032418;28;20068;-68
2021/03/22 09:09:06;;;;;;;2.53;1.92;;;25.10;24.00;;;;;;5032243;28;20057;-66
2021/03/22 09:11:44;;;;;;;2.05;1.63;;;25.10;24.00;;;;;;5023896;28;20656;-65
2021/03/22 09:14:29;;;;;;;2.03;1.52;;;25.10;24.00;;;;;;5032043;28;20049;-66
2021/03/22 09:16:59;;;;;;;4.38;1.88;;;25.10;24.00;;;;;;5036978;28;20132;-68
2021/03/22 09:19:42;;;;;;;1.98;1.48;;;25.10;24.00;;;;;;5028210;28;20060;-64
2021/03/22 09:22:42;;;;;;;4.45;1.67;;;25.10;24.10;;;;;;5034128;28;20053;-68
2021/03/22 09:25:11;;;;;;;3.33;1.63;;;25.10;24.10;;;;;;5035179;28;20526;-66
2021/03/22 09:27:40;;;;;;;3.58;1.92;;;25.10;24.10;;;;;;5032609;28;20302;-68
2021/03/22 09:30:33;;;;;;;2.00;1.52;;;25.20;24.20;;;;;;5037760;28;20126;-66
2021/03/22 09:33:00;;;;;;;3.95;1.95;;;25.20;24.10;;;;;;5036789;28;20076;-68
2021/03/22 09:36:03;;;;;;;1.63;1.38;;;25.20;24.10;;;;;;5029929;28;20057;-65
2021/03/22 09:38:49;;;;;;;3.00;1.58;;;25.30;24.10;;;;;;5019003;28;20144;-69
2021/03/22 09:41:16;;;;;;;1.98;1.70;;;25.30;24.00;;;;;;5032510;28;20140;-64
2021/03/22 09:44:05;;;;;;;1.50;1.33;;;25.30;23.90;;;;;;5018884;28;20132;-63
2021/03/22 09:46:34;;;;;;;3.85;1.65;;;25.30;23.90;;;;;;5034075;28;20462;-63
2021/03/22 09:49:15;;;;;;;1.93;1.70;;;25.30;23.80;;;;;;5031690;28;20122;-64
2021/03/22 09:51:45;;;;;;;3.13;1.77;;;25.40;23.80;;;;;;5035502;28;20069;-65
2021/03/22 09:54:38;;;;;;;3.13;1.80;;;25.40;24.20;;;;;;5040082;28;20406;-66
2021/03/22 09:57:26;;;;;;;3.70;1.45;;;25.40;23.70;;;;;;5033634;28;20057;-66
2021/03/22 10:00:33;;;;;;;1.50;1.40;;;25.40;23.60;;;;;;5033040;28;20141;-66
2021/03/22 10:03:30;;;;;;;2.42;1.52;;;25.40;23.60;;;;;;5030638;28;20057;-65
2021/03/22 10:06:03;;;;;;;6.53;1.70;;;25.50;23.70;;;;;;5034562;28;20064;-69
2021/03/22 10:08:37;;;;;;;1.27;1.15;;;25.50;23.60;;;;;;5033485;28;20473;-68
2021/03/22 10:11:27;;;;;;;3.38;2.13;;;25.50;23.60;;;;;;5035457;28;20056;-70
2021/03/22 10:14:00;;;;;;;3.00;1.50;;;25.60;23.60;;;;;;5032826;28;20111;-67
2021/03/22 10:16:37;;;;;;;1.92;1.40;;;25.60;23.50;;;;;;5035495;28;20417;-68
2021/03/22 10:19:21;;;;;;;1.98;1.55;;;25.60;23.50;;;;;;5033999;28;20045;-69
2021/03/22 10:21:52;;;;;;;1.30;1.13;;;25.60;23.40;;;;;;5035325;28;20049;-64
2021/03/22 10:24:48;;;;;;;1.70;1.60;;;25.60;23.40;;;;;;5035420;28;20044;-62
2021/03/22 10:27:29;;;;;;;2.42;1.50;;;25.60;23.30;;;;;;5035399;28;20095;-62
2021/03/22 10:30:18;;;;;;;2.17;1.70;;;25.60;23.30;;;;;;5035474;28;20128;-63
2021/03/22 10:32:57;;;;;;;2.05;1.42;;;25.50;23.20;;;;;;5044740;28;20060;-61
2021/03/22 10:35:38;;;;;;;2.20;1.90;;;25.50;23.20;;;;;;5041318;28;20053;-67
2021/03/22 10:38:04;;;;;;;;;;;25.50;23.20;;;;;;5023815;28;20484;-68
2021/03/22 10:40:39;;;;;;;2.60;1.92;;;25.50;23.10;;;;;;5037106;28;20051;-70
2021/03/22 10:43:24;;;;;;;3.25;1.70;;;25.50;23.10;;;;;;5041031;28;20053;-68
2021/03/22 10:45:51;;;;;;;2.00;1.15;;;25.50;23.10;;;;;;5032089;28;21792;-68
2021/03/22 10:48:22;;;;;;;1.73;1.45;;;25.50;23.10;;;;;;5041751;28;20045;-67
2021/03/22 10:51:11;;;;;;;1.48;1.02;;;25.50;23.10;;;;;;5042482;28;20045;-66
2021/03/22 10:54:02;;;;;;;1.55;1.42;;;25.40;23.10;;;;;;5036597;28;20049;-70
2021/03/22 10:56:57;;;;;;;2.78;1.33;;;25.40;23.00;;;;;;5011347;28;20052;-69
2021/03/22 10:59:34;;;;;;;1.73;1.23;;;25.40;23.00;;;;;;5037495;28;20060;-69
2021/03/22 11:02:25;;;;;;;2.65;1.50;;;25.40;22.80;;;;;;5033620;28;20087;-68
2021/03/22 11:04:55;;;;;;;1.67;1.33;;;25.40;22.90;;;;;;5041172;28;20144;-67
2021/03/22 11:07:24;;;;;;;3.55;1.50;;;25.40;22.90;;;;;;5043204;28;20048;-66
2021/03/22 11:10:00;;;;;;;1.90;1.52;;;25.30;22.90;;;;;;5037111;28;20049;-66
2021/03/22 11:12:28;;;;;;;2.80;1.60;;;25.30;22.90;;;;;;5043724;28;20560;-67
2021/03/22 11:15:04;;;;;;;4.10;1.33;;;25.30;22.90;;;;;;5041964;28;20123;-66
2021/03/22 11:17:31;;;;;;;3.13;1.42;;;25.30;22.90;;;;;;5041817;28;20151;-67
2021/03/22 11:20:04;;;;;;;1.45;1.35;;;25.30;22.80;;;;;;5048199;28;20056;-67
2021/03/22 11:22:37;;;;;;;1.58;1.25;;;25.30;22.70;;;;;;5041182;28;20481;-67
2021/03/22 11:25:34;;;;;;;2.95;1.48;;;25.30;22.70;;;;;;5025601;28;20456;-68
2021/03/22 11:28:08;;;;;;;1.50;1.40;;;25.20;22.70;;;;;;5040296;28;20053;-68
2021/03/22 11:30:41;;;;;;;4.13;1.45;;;25.30;22.80;;;;;;5040670;28;20812;-75
2021/03/22 11:33:18;;;;;;;1.98;1.40;;;25.30;22.80;;;;;;5035540;28;20061;-65
2021/03/22 11:35:47;;;;;;;1.88;1.50;;;25.40;22.70;;;;;;5039083;28;20041;-66
2021/03/22 11:38:26;;;;;;;1.33;1.27;;;25.40;22.50;;;;;;5038742;28;20059;-66
2021/03/22 11:40:54;;;;;;;3.17;1.50;;;25.40;22.40;;;;;;5039718;28;20283;-66
2021/03/22 11:43:35;;;;;;;2.58;1.25;;;25.40;22.30;;;;;;5038108;28;20128;-66
2021/03/22 11:46:22;;;;;;;1.40;1.10;;;25.40;22.20;;;;;;5033792;28;20099;-65
2021/03/22 11:48:49;;;;;;;1.13;1.02;;;25.40;22.10;;;;;;5039804;28;20055;-65
2021/03/22 11:51:16;;;;;;;2.63;1.13;;;25.40;22.10;;;;;;5037917;28;20094;-64
2021/03/22 11:54:07;;;;;;;2.42;1.33;;;25.40;22.00;;;;;;5040565;28;20045;-64
2021/03/22 11:56:38;;;;;;;3.42;1.40;;;25.40;22.00;;;;;;5022738;28;20464;-63
2021/03/22 11:59:19;;;;;;;1.67;1.25;;;25.40;21.90;;;;;;5021595;28;20391;-62
2021/03/22 12:02:04;;;;;;;1.83;1.40;;;25.40;21.80;;;;;;5033452;28;20048;-68
2021/03/22 12:04:33;;;;;;;1.92;1.52;;;25.40;21.80;;;;;;5007489;28;20048;-63
2021/03/22 12:07:11;;;;;;;1.88;1.50;;;25.40;21.70;;;;;;5037634;28;20052;-62
2021/03/22 12:09:42;;;;;;;1.50;1.40;;;25.40;21.70;;;;;;5032760;28;20073;-63
2021/03/22 12:12:15;;;;;;;2.25;1.20;;;25.40;21.70;;;;;;5033234;28;20048;-61
2021/03/22 12:14:42;;;;;;;1.08;1.08;;;25.50;21.70;;;;;;5028046;28;20156;-63
2021/03/22 12:17:20;;;;;;;1.08;1.02;;;25.50;21.70;;;;;;5032517;28;20065;-62
2021/03/22 12:19:48;;;;;;;1.33;1.17;;;25.40;21.60;;;;;;5036008;28;20048;-63
2021/03/22 12:22:16;;;;;;;2.22;1.45;;;25.40;21.50;;;;;;5025889;28;20557;-63
2021/03/22 12:24:44;;;;;;;1.70;1.20;;;25.40;21.40;;;;;;5034484;28;20765;-66
2021/03/22 12:27:16;;;;;;;1.35;1.25;;;25.40;21.40;;;;;;5039298;28;20485;-73
2021/03/22 12:29:44;;;;;;;2.35;1.20;;;25.40;21.40;;;;;;5036137;28;20176;-68
2021/03/22 12:32:18;;;;;;;1.10;0.98;;;25.40;21.50;;;;;;5030901;28;20139;-67
2021/03/22 12:34:45;;;;;;;1.42;1.10;;;25.40;21.40;;;;;;5031221;28;20064;-66
2021/03/22 12:37:29;;;;;;;1.73;0.95;;;25.40;21.40;;;;;;5033681;28;20077;-68
2021/03/22 12:39:56;;;;;;;1.05;0.85;;;25.40;21.30;;;;;;5028477;28;20048;-67
2021/03/22 12:42:25;;;;;;;2.08;1.48;;;25.50;21.40;;;;;;5016351;28;20056;-64
2021/03/22 12:44:53;;;;;;;1.20;1.05;;;25.50;21.40;;;;;;5034679;28;20149;-64
2021/03/22 12:47:22;;;;;;;2.53;1.77;;;25.40;21.30;;;;;;5032351;28;20115;-63
2021/03/22 12:49:49;;;;;;;3.10;1.40;;;25.40;21.30;;;;;;5033175;28;20057;-66
2021/03/22 12:52:16;;;;;;;2.88;1.88;;;25.40;21.30;;;;;;5036304;28;20293;-65
2021/03/22 12:54:54;;;;;;;2.10;1.40;;;25.40;21.30;;;;;;5035864;28;20048;-65
2021/03/22 12:57:24;;;;;;;1.77;1.30;;;25.40;21.20;;;;;;5028866;28;20461;-64
2021/03/22 12:59:52;;;;;;;1.80;1.15;;;25.50;21.30;;;;;;5034570;28;20154;-65
2021/03/22 13:02:25;;;;;;;3.38;1.50;;;25.50;21.20;;;;;;5030760;28;20060;-62
2021/03/22 13:04:52;;;;;;;3.70;1.45;;;25.50;21.20;;;;;;5038335;28;21459;-63
2021/03/22 13:07:19;;;;;;;1.83;1.63;;;25.50;21.20;;;;;;5035656;28;20757;-63
2021/03/22 13:09:47;;;;;;;1.90;1.33;;;25.50;21.20;;;;;;5037744;28;20177;-64
2021/03/22 13:12:23;;;;;;;1.10;1.00;;;25.50;21.20;;;;;;5033227;28;20049;-64
2021/03/22 13:14:53;;;;;;;0.73;0.73;;;25.50;21.20;;;;;;5037065;28;20072;-65
2021/03/22 13:17:33;;;;;;;1.00;0.93;;;25.50;21.20;;;;;;5034585;28;20044;-63
2021/03/22 13:20:02;;;;;;;2.03;1.10;;;25.50;21.10;;;;;;5033280;28;20045;-65
2021/03/22 13:22:31;;;;;;;1.58;1.00;;;25.50;21.10;;;;;;5037501;28;20137;-62
2021/03/22 13:25:02;;;;;;;2.15;1.23;;;25.50;21.10;;;;;;5033253;28;20131;-64
2021/03/22 13:27:30;;;;;;;2.45;1.00;;;25.50;21.10;;;;;;5044030;28;20065;-64
2021/03/22 13:29:57;;;;;;;1.55;1.00;;;25.50;21.10;;;;;;5035050;28;20548;-64
2021/03/22 13:32:23;;;;;;;3.10;1.05;;;25.50;21.10;;;;;;5030172;28;20135;-63
2021/03/22 13:34:50;;;;;;;2.88;0.90;;;25.50;21.10;;;;;;5035608;28;20049;-63